Time;durP1;ratioP1;P1;durP2;ratioP2;P2;SDS_P1;SDS_P2;PMS_P1;PMS_P2;Temp;Humidity;BMP_temperature;BMP_pressure;BME280_temperature;BME280_humidity;BME280_pressure;Samples;Min_cycle;Max_cycle;Signal;HPM_P1;HPM_P2
2023/09/17 00:00:41;;;;;;;7.93;7.32;;;;;;;20.04;66.47;95366.66;5058248;28;20189;-69
2023/09/17 00:03:09;;;;;;;8.07;7.28;;;;;;;20.05;65.35;95364.69;5058094;28;20273;-69
2023/09/17 00:05:37;;;;;;;7.70;7.00;;;;;;;20.06;64.96;95366.28;5056852;28;20205;-69
2023/09/17 00:08:05;;;;;;;7.75;6.95;;;;;;;20.02;64.88;95360.69;5057870;28;20186;-69
2023/09/17 00:10:41;;;;;;;7.10;6.50;;;;;;;20.02;64.54;95359.91;5057635;28;20189;-69
2023/09/17 00:13:09;;;;;;;7.22;6.53;;;;;;;20.02;64.20;95357.09;5057810;28;20288;-69
2023/09/17 00:15:37;;;;;;;6.53;5.93;;;;;;;20.00;63.66;95351.91;5057600;28;20190;-69
2023/09/17 00:18:05;;;;;;;6.78;6.05;;;;;;;20.00;63.36;95353.91;5057527;28;20620;-69
2023/09/17 00:20:32;;;;;;;6.63;6.00;;;;;;;20.00;62.82;95348.31;5056517;28;20206;-70
2023/09/17 00:23:01;;;;;;;5.55;5.03;;;;;;;20.02;62.20;95346.69;5057276;28;20213;-69
2023/09/17 00:25:29;;;;;;;6.80;5.50;;;;;;;20.01;61.93;95347.91;5057835;28;20196;-70
2023/09/17 00:27:59;;;;;;;5.45;4.95;;;;;;;19.99;61.49;95338.31;5057036;28;20201;-70
2023/09/17 00:30:27;;;;;;;5.80;5.40;;;;;;;19.99;61.39;95346.72;5057793;28;20209;-70
2023/09/17 00:32:55;;;;;;;6.35;5.78;;;;;;;19.99;61.26;95338.31;5056515;28;20197;-69
2023/09/17 00:35:23;;;;;;;6.32;5.82;;;;;;;19.95;61.80;95341.13;5057153;28;20185;-70
2023/09/17 00:37:51;;;;;;;6.70;6.10;;;;;;;19.94;61.65;95329.16;5056236;28;20201;-69
2023/09/17 00:40:18;;;;;;;6.75;6.25;;;;;;;19.94;61.48;95336.75;5056594;28;20202;-70
2023/09/17 00:42:48;;;;;;;7.80;7.10;;;;;;;19.94;61.68;95334.75;5057095;28;20190;-69
2023/09/17 00:45:20;;;;;;;8.77;7.85;;;;;;;19.93;62.16;95335.97;5056987;28;20247;-69
2023/09/17 00:47:49;;;;;;;9.25;8.55;;;;;;;19.96;61.73;95332.31;5057344;28;20178;-70
2023/09/17 00:50:16;;;;;;;10.27;9.27;;;;;;;19.95;61.93;95333.53;5056226;28;20260;-69
2023/09/17 00:52:45;;;;;;;10.80;9.82;;;;;;;19.95;62.18;95335.53;5057111;28;20186;-69
2023/09/17 00:55:13;;;;;;;10.90;9.90;;;;;;;19.94;62.53;95334.75;5056569;28;20229;-70
2023/09/17 00:57:45;;;;;;;10.63;9.63;;;;;;;19.93;62.81;95335.13;5056195;28;20263;-70
2023/09/17 01:00:14;;;;;;;11.80;10.80;;;;;;;19.91;62.71;95331.97;5056229;28;20209;-71
2023/09/17 01:02:47;;;;;;;11.45;10.25;;;;;;;19.91;63.09;95331.97;5056242;28;20513;-70
2023/09/17 01:05:15;;;;;;;11.60;10.55;;;;;;;19.90;63.13;95336.75;5056935;28;20205;-70
2023/09/17 01:07:43;;;;;;;11.40;10.35;;;;;;;19.87;63.09;95339.59;5056594;28;20201;-71
2023/09/17 01:10:12;;;;;;;11.70;10.52;;;;;;;19.88;63.04;95338.38;5056897;28;20186;-71
2023/09/17 01:12:41;;;;;;;11.63;10.50;;;;;;;19.85;62.88;95339.19;5056705;28;20190;-71
2023/09/17 01:15:11;;;;;;;11.45;10.50;;;;;;;19.85;63.18;95339.19;5056812;28;20297;-70
2023/09/17 01:17:39;;;;;;;12.02;10.40;;;;;;;19.85;63.02;95328.78;5056376;28;20236;-71
2023/09/17 01:20:24;;;;;;;12.00;10.77;;;;;;;19.86;63.26;95337.97;5055661;28;20201;-71
2023/09/17 01:22:55;;;;;;;10.65;9.77;;;;;;;19.83;63.54;95341.59;5056616;28;20196;-71
2023/09/17 01:25:31;;;;;;;10.52;9.52;;;;;;;19.82;63.67;95337.19;5055498;28;20209;-71
2023/09/17 01:28:05;;;;;;;11.63;10.43;;;;;;;19.80;63.51;95343.19;5055856;28;20204;-71
2023/09/17 01:30:33;;;;;;;12.10;10.20;;;;;;;19.79;64.13;95346.38;5056421;28;20177;-71
2023/09/17 01:33:01;;;;;;;11.80;10.55;;;;;;;19.77;64.17;95338.41;5055559;28;20208;-71
2023/09/17 01:35:30;;;;;;;11.82;10.73;;;;;;;19.76;63.66;95342.41;5055406;28;20225;-70
2023/09/17 01:38:00;;;;;;;11.65;10.57;;;;;;;19.76;64.00;95341.63;5056422;28;20193;-70
2023/09/17 01:40:30;;;;;;;11.15;10.07;;;;;;;19.74;63.87;95332.84;5055409;28;20206;-70
2023/09/17 01:42:57;;;;;;;11.35;10.30;;;;;;;19.72;64.04;95330.44;5055836;28;20236;-71
2023/09/17 01:45:28;;;;;;;12.85;11.63;;;;;;;19.73;64.22;95329.25;5053766;28;20226;-71
2023/09/17 01:47:56;;;;;;;12.13;10.93;;;;;;;19.72;64.13;95338.84;5056084;28;20265;-71
2023/09/17 01:50:25;;;;;;;10.63;9.63;;;;;;;19.69;64.39;95343.25;5055180;28;20210;-71
2023/09/17 01:52:54;;;;;;;10.40;9.45;;;;;;;19.66;64.87;95340.47;5056121;28;20390;-71
2023/09/17 01:55:22;;;;;;;11.52;10.35;;;;;;;19.62;65.05;95342.44;5055807;28;20225;-70
2023/09/17 01:57:50;;;;;;;11.45;10.40;;;;;;;19.60;65.98;95344.84;5055168;28;20198;-70
2023/09/17 02:00:19;;;;;;;10.73;9.82;;;;;;;19.57;66.15;95340.03;5055853;28;20190;-70
2023/09/17 02:02:52;;;;;;;12.20;10.98;;;;;;;19.56;65.97;95341.25;5055800;28;20197;-70
2023/09/17 02:05:24;;;;;;;11.98;10.82;;;;;;;19.53;66.27;95347.66;5055994;28;20182;-70
2023/09/17 02:07:52;;;;;;;12.48;11.18;;;;;;;19.49;66.71;95337.28;5054916;28;20247;-70
2023/09/17 02:10:20;;;;;;;11.82;10.82;;;;;;;19.47;67.25;95344.50;5055628;28;20185;-69
2023/09/17 02:12:48;;;;;;;12.95;11.73;;;;;;;19.45;67.75;95352.47;5055588;28;20193;-69
2023/09/17 02:15:18;;;;;;;13.05;11.63;;;;;;;19.41;68.21;95341.28;5055275;28;20661;-69
2023/09/17 02:17:51;;;;;;;11.98;10.88;;;;;;;19.35;68.76;95342.91;5055044;28;20198;-69
2023/09/17 02:20:18;;;;;;;12.90;11.70;;;;;;;19.35;68.78;95345.69;5054730;28;20237;-69
2023/09/17 02:22:47;;;;;;;13.45;12.05;;;;;;;19.33;69.03;95350.91;5054347;28;20215;-69
2023/09/17 02:25:14;;;;;;;13.55;12.30;;;;;;;19.33;68.84;95348.13;5055600;28;20185;-69
2023/09/17 02:27:43;;;;;;;13.15;11.85;;;;;;;19.32;68.79;95352.13;5054595;28;20602;-71
2023/09/17 02:30:12;;;;;;;14.27;12.88;;;;;;;19.31;68.30;95352.50;5054386;28;20244;-70
2023/09/17 02:32:39;;;;;;;14.00;12.73;;;;;;;19.31;67.95;95349.72;5055332;28;20185;-70
2023/09/17 02:35:12;;;;;;;14.48;12.57;;;;;;;19.34;67.87;95343.31;5054712;28;20225;-70
2023/09/17 02:37:40;;;;;;;14.40;13.10;;;;;;;19.33;67.63;95342.53;5055623;28;20194;-70
2023/09/17 02:40:11;;;;;;;13.02;11.75;;;;;;;19.33;67.64;95350.13;5055349;28;20201;-70
2023/09/17 02:42:39;;;;;;;14.13;12.82;;;;;;;19.31;67.31;95341.31;5055039;28;20276;-70
2023/09/17 02:45:11;;;;;;;14.05;12.75;;;;;;;19.30;67.15;95339.72;5055284;28;20229;-70
2023/09/17 02:47:41;;;;;;;14.77;13.30;;;;;;;19.28;67.47;95333.72;5055263;28;20251;-70
2023/09/17 02:50:11;;;;;;;14.18;12.68;;;;;;;19.28;67.67;95337.34;5054045;28;20213;-70
2023/09/17 02:52:39;;;;;;;13.85;12.45;;;;;;;19.28;68.11;95334.56;5054072;28;20263;-70
2023/09/17 02:55:09;;;;;;;14.05;12.68;;;;;;;19.27;68.27;95329.34;5054822;28;20714;-70
2023/09/17 02:57:37;;;;;;;14.05;12.68;;;;;;;19.27;68.28;95321.75;5053947;28;20190;-70
2023/09/17 03:00:08;;;;;;;14.73;13.27;;;;;;;19.24;68.59;95319.75;5054248;28;20194;-70
2023/09/17 03:02:36;;;;;;;15.00;13.60;;;;;;;19.20;68.86;95330.94;5054923;28;20243;-70
2023/09/17 03:05:03;;;;;;;14.23;12.82;;;;;;;19.18;68.62;95324.19;5054478;28;20279;-70
2023/09/17 03:07:32;;;;;;;14.13;12.73;;;;;;;19.16;69.12;95326.56;5054647;28;20197;-70
2023/09/17 03:10:02;;;;;;;13.15;11.85;;;;;;;19.14;68.94;95329.78;5055049;28;20259;-70
2023/09/17 03:12:32;;;;;;;14.07;12.70;;;;;;;19.13;69.01;95330.97;5054937;28;20182;-70
2023/09/17 03:15:00;;;;;;;15.05;13.55;;;;;;;19.13;69.27;95330.16;5053824;28;20679;-70
2023/09/17 03:17:30;;;;;;;15.82;14.18;;;;;;;19.10;69.31;95325.38;5054967;28;20186;-70
2023/09/17 03:19:58;;;;;;;15.00;13.60;;;;;;;19.08;69.40;95328.59;5054958;28;20178;-70
2023/09/17 03:22:26;;;;;;;14.15;12.77;;;;;;;19.09;69.08;95330.16;5054797;28;20181;-70
2023/09/17 03:24:59;;;;;;;14.52;13.05;;;;;;;19.08;69.36;95336.97;5054608;28;20527;-70
2023/09/17 03:27:28;;;;;;;15.60;12.35;;;;;;;19.07;69.18;95337.38;5054865;28;20186;-70
2023/09/17 03:29:55;;;;;;;14.07;12.70;;;;;;;19.08;69.30;95339.75;5054159;28;20201;-69
2023/09/17 03:32:22;;;;;;;14.65;13.15;;;;;;;19.09;68.64;95337.75;5054694;28;20240;-69
2023/09/17 03:34:50;;;;;;;14.63;13.13;;;;;;;19.08;68.24;95342.56;5053753;28;20233;-69
2023/09/17 03:37:18;;;;;;;14.00;12.50;;;;;;;19.08;68.45;95344.56;5054730;28;20197;-69
2023/09/17 03:39:57;;;;;;;13.57;12.20;;;;;;;19.05;68.33;95340.56;5053714;28;20216;-69
2023/09/17 03:42:25;;;;;;;13.80;12.60;;;;;;;19.05;68.31;95337.78;5052549;28;20637;-69
2023/09/17 03:44:53;;;;;;;13.65;12.13;;;;;;;19.06;68.20;95335.75;5054519;28;20238;-69
2023/09/17 03:47:20;;;;;;;13.13;11.93;;;;;;;19.03;68.78;95342.16;5054493;28;20209;-69
2023/09/17 03:49:48;;;;;;;13.63;12.13;;;;;;;19.04;68.61;95344.56;5053728;28;20198;-69
2023/09/17 03:52:14;;;;;;;13.65;12.00;;;;;;;19.04;68.32;95346.56;5053808;28;20206;-69
2023/09/17 03:54:42;;;;;;;12.18;10.93;;;;;;;19.02;68.50;95351.75;5054483;28;20225;-70
2023/09/17 03:57:10;;;;;;;12.73;11.45;;;;;;;18.98;68.33;95346.94;5054769;28;20190;-70
2023/09/17 03:59:40;;;;;;;12.45;11.23;;;;;;;18.97;68.31;95350.97;5054299;28;20185;-70
2023/09/17 04:02:10;;;;;;;13.40;11.10;;;;;;;18.97;68.55;95353.75;5053275;28;20189;-70
2023/09/17 04:04:38;;;;;;;12.65;11.32;;;;;;;18.99;68.99;95356.13;5053797;28;20202;-70
2023/09/17 04:07:06;;;;;;;13.10;11.88;;;;;;;18.98;68.37;95354.53;5053514;28;20194;-70
2023/09/17 04:09:33;;;;;;;13.05;11.50;;;;;;;19.00;68.76;95355.75;5056344;28;20194;-70
2023/09/17 04:12:04;;;;;;;13.05;11.70;;;;;;;18.97;68.42;95359.34;5056997;28;20206;-70
2023/09/17 04:14:33;;;;;;;13.07;11.77;;;;;;;18.95;68.50;95361.75;5057580;28;20201;-70
2023/09/17 04:17:04;;;;;;;13.48;12.13;;;;;;;18.94;68.53;95360.13;5057567;28;20255;-70
2023/09/17 04:19:32;;;;;;;13.52;12.15;;;;;;;18.91;68.61;95358.13;5057536;28;20198;-69
2023/09/17 04:22:02;;;;;;;13.57;12.15;;;;;;;18.92;68.89;95356.97;5056944;28;20205;-69
2023/09/17 04:24:29;;;;;;;13.10;11.80;;;;;;;18.92;68.86;95370.94;5056868;28;20528;-69
2023/09/17 04:26:57;;;;;;;14.10;12.73;;;;;;;18.91;68.60;95362.94;5057229;28;20194;-69
2023/09/17 04:29:25;;;;;;;13.85;12.45;;;;;;;18.90;69.19;95367.72;5056595;28;20267;-69
2023/09/17 04:31:52;;;;;;;13.80;12.40;;;;;;;18.92;68.95;95365.34;5056684;28;20202;-69
2023/09/17 04:34:20;;;;;;;14.30;12.27;;;;;;;18.95;69.07;95366.53;5057582;28;20190;-69
2023/09/17 04:36:50;;;;;;;15.00;13.43;;;;;;;18.96;69.02;95368.94;5056573;28;20201;-69
2023/09/17 04:39:18;;;;;;;15.90;13.35;;;;;;;18.95;69.11;95366.53;5057516;28;20190;-69
2023/09/17 04:41:47;;;;;;;14.05;12.75;;;;;;;18.92;69.12;95368.13;5058001;28;20194;-69
2023/09/17 04:44:14;;;;;;;14.68;13.18;;;;;;;18.94;69.43;95365.72;5057079;28;20241;-70
2023/09/17 04:46:43;;;;;;;14.48;12.98;;;;;;;18.93;69.02;95371.72;5057326;28;20204;-69
2023/09/17 04:49:11;;;;;;;15.07;13.57;;;;;;;18.96;69.48;95363.34;5056562;28;20197;-70
2023/09/17 04:51:41;;;;;;;14.40;13.05;;;;;;;18.98;69.40;95369.31;5056275;28;20185;-69
2023/09/17 04:54:11;;;;;;;15.80;14.13;;;;;;;18.99;69.67;95372.91;5057031;28;20218;-69
2023/09/17 04:56:39;;;;;;;15.07;13.52;;;;;;;18.98;69.86;95371.31;5056467;28;20640;-69
2023/09/17 04:59:07;;;;;;;17.15;14.60;;;;;;;18.97;69.89;95364.13;5056533;28;20208;-69
2023/09/17 05:01:35;;;;;;;16.65;14.90;;;;;;;18.98;69.98;95369.31;5056197;28;20291;-70
2023/09/17 05:04:03;;;;;;;18.30;14.77;;;;;;;18.98;70.01;95368.53;5057158;28;20261;-69
2023/09/17 05:06:31;;;;;;;16.13;14.52;;;;;;;19.00;70.04;95366.94;5057026;28;20193;-70
2023/09/17 05:09:04;;;;;;;17.60;15.70;;;;;;;19.04;70.34;95371.72;5056287;28;20205;-69
2023/09/17 05:11:33;;;;;;;17.63;15.85;;;;;;;19.07;69.74;95379.31;5056907;28;20216;-73
2023/09/17 05:14:02;;;;;;;18.40;16.42;;;;;;;19.08;69.85;95378.09;5057067;28;20204;-71
2023/09/17 05:16:31;;;;;;;17.38;15.63;;;;;;;19.10;70.13;95370.94;5055601;28;20271;-72
2023/09/17 05:19:03;;;;;;;20.50;16.63;;;;;;;19.12;70.13;95376.91;5056910;28;20210;-69
2023/09/17 05:21:31;;;;;;;18.52;16.55;;;;;;;19.10;70.35;95379.31;5056609;28;20274;-69
2023/09/17 05:24:04;;;;;;;19.23;17.20;;;;;;;19.09;69.96;95372.09;5056804;28;20193;-69
2023/09/17 05:26:32;;;;;;;18.27;16.42;;;;;;;19.13;70.03;95374.91;5056286;28;20174;-69
2023/09/17 05:29:00;;;;;;;17.20;15.40;;;;;;;19.15;70.35;95372.50;5056480;28;20182;-70
2023/09/17 05:31:32;;;;;;;17.88;15.82;;;;;;;19.18;70.35;95371.72;5056003;28;20208;-69
2023/09/17 05:34:01;;;;;;;17.50;15.55;;;;;;;19.21;70.76;95370.91;5055671;28;20198;-69
2023/09/17 05:36:28;;;;;;;17.92;15.25;;;;;;;19.23;70.45;95377.69;5056445;28;20248;-69
2023/09/17 05:38:57;;;;;;;17.98;15.07;;;;;;;19.27;71.00;95380.47;5039045;28;20213;-69
2023/09/17 05:41:26;;;;;;;18.00;14.88;;;;;;;19.28;70.87;95384.06;5056311;28;20208;-69
2023/09/17 05:43:54;;;;;;;17.13;14.52;;;;;;;19.33;71.27;95392.06;5055170;28;20186;-69
2023/09/17 05:46:21;;;;;;;18.67;15.50;;;;;;;19.34;70.97;95388.84;5055557;28;20189;-69
2023/09/17 05:48:49;;;;;;;17.17;15.27;;;;;;;19.35;71.40;95386.84;5054971;28;20617;-69
2023/09/17 05:51:17;;;;;;;16.77;15.10;;;;;;;19.36;71.34;95380.06;5055122;28;20205;-70
2023/09/17 05:53:45;;;;;;;17.95;15.35;;;;;;;19.40;71.39;95392.06;5055241;28;20194;-70
2023/09/17 05:56:14;;;;;;;16.52;13.93;;;;;;;19.40;71.98;95392.84;5055251;28;20220;-69
2023/09/17 05:58:43;;;;;;;15.98;14.40;;;;;;;19.44;71.94;95388.03;5055756;28;20182;-70
2023/09/17 06:01:11;;;;;;;17.02;14.68;;;;;;;19.44;71.90;95385.25;5055281;28;20202;-69
2023/09/17 06:03:39;;;;;;;16.02;14.32;;;;;;;19.45;72.00;95391.63;5055014;28;20194;-69
2023/09/17 06:06:07;;;;;;;17.83;15.07;;;;;;;19.46;72.02;95391.25;5055824;28;20186;-69
2023/09/17 06:08:35;;;;;;;16.88;14.77;;;;;;;19.45;72.32;95384.03;5055492;28;20190;-69
2023/09/17 06:11:04;;;;;;;16.95;13.90;;;;;;;19.48;72.26;95386.03;5055920;28;20193;-69
2023/09/17 06:13:32;;;;;;;16.48;14.68;;;;;;;19.49;71.79;95384.81;5054806;28;20201;-69
2023/09/17 06:16:01;;;;;;;16.15;14.02;;;;;;;19.51;71.98;95392.03;5055573;28;20201;-69
2023/09/17 06:18:32;;;;;;;16.23;14.43;;;;;;;19.53;72.19;95390.41;5054747;28;20296;-68
2023/09/17 06:21:01;;;;;;;17.13;15.27;;;;;;;19.56;72.06;95391.63;5055438;28;20178;-70
2023/09/17 06:23:31;;;;;;;17.75;14.88;;;;;;;19.59;72.04;95396.41;5055895;28;20197;-69
2023/09/17 06:26:00;;;;;;;17.58;15.63;;;;;;;19.59;72.67;95400.00;5054396;28;20226;-69
2023/09/17 06:28:28;;;;;;;19.30;16.65;;;;;;;19.62;72.59;95398.41;5055028;28;20186;-69
2023/09/17 06:30:56;;;;;;;19.13;16.20;;;;;;;19.64;72.02;95396.81;5055579;28;20186;-69
2023/09/17 06:33:27;;;;;;;20.67;16.42;;;;;;;19.65;72.42;95397.63;5055113;28;20196;-69
2023/09/17 06:35:56;;;;;;;18.38;15.77;;;;;;;19.66;72.40;95410.41;5054370;28;20228;-69
2023/09/17 06:38:23;;;;;;;17.88;15.95;;;;;;;19.68;72.32;95400.41;5055339;28;20240;-69
2023/09/17 06:40:51;;;;;;;19.73;16.75;;;;;;;19.71;72.72;95405.19;5054308;28;20220;-69
2023/09/17 06:43:19;;;;;;;18.17;16.13;;;;;;;19.71;72.82;95401.59;5054576;28;20525;-69
2023/09/17 06:45:49;;;;;;;20.42;18.02;;;;;;;19.74;72.65;95395.19;5054603;28;20233;-69
2023/09/17 06:48:16;;;;;;;23.40;17.33;;;;;;;19.78;72.84;95398.78;5055199;28;20186;-69
2023/09/17 06:50:45;;;;;;;19.25;17.15;;;;;;;19.79;72.44;95397.59;5055227;28;20186;-69
2023/09/17 06:53:14;;;;;;;19.25;17.15;;;;;;;19.82;72.74;95399.56;5054573;28;20229;-69
2023/09/17 06:55:41;;;;;;;18.30;16.35;;;;;;;19.86;72.69;95405.13;5054140;28;20232;-69
2023/09/17 06:58:12;;;;;;;19.48;16.52;;;;;;;19.88;72.66;95397.94;5055118;28;20185;-69
2023/09/17 07:00:40;;;;;;;19.00;15.90;;;;;;;19.91;72.48;95407.53;5055026;28;20236;-70
2023/09/17 07:03:08;;;;;;;18.85;16.13;;;;;;;19.93;72.80;95407.91;5054733;28;20205;-69
2023/09/17 07:05:36;;;;;;;18.55;16.15;;;;;;;19.94;72.45;95403.94;5055026;28;20186;-69
2023/09/17 07:08:06;;;;;;;18.27;15.00;;;;;;;19.96;72.58;95404.31;5054151;28;20190;-69
2023/09/17 07:10:36;;;;;;;17.17;15.43;;;;;;;19.96;72.35;95404.31;5054047;28;20201;-69
2023/09/17 07:13:05;;;;;;;17.55;15.65;;;;;;;19.99;72.43;95405.50;5054079;28;20198;-70
2023/09/17 07:15:33;;;;;;;17.77;15.27;;;;;;;20.10;72.29;95407.06;5054957;28;20202;-69
2023/09/17 07:18:02;;;;;;;17.05;14.35;;;;;;;20.22;72.09;95407.81;5054150;28;20248;-70
2023/09/17 07:20:30;;;;;;;17.92;15.73;;;;;;;20.32;71.23;95412.56;5054738;28;20198;-69
2023/09/17 07:22:58;;;;;;;18.17;15.63;;;;;;;20.39;71.48;95410.50;5054902;28;20201;-69
2023/09/17 07:25:27;;;;;;;17.38;15.20;;;;;;;20.51;71.06;95411.28;5053948;28;20255;-70
2023/09/17 07:27:55;;;;;;;16.65;14.80;;;;;;;20.67;69.83;95417.19;5054173;28;20197;-70
2023/09/17 07:30:22;;;;;;;17.08;14.73;;;;;;;20.81;69.28;95419.13;5053422;28;20636;-69
2023/09/17 07:32:50;;;;;;;18.83;15.00;;;;;;;20.88;68.60;95428.28;5053843;28;20198;-69
2023/09/17 07:35:18;;;;;;;16.92;15.13;;;;;;;20.99;67.97;95427.38;5055117;28;20194;-69
2023/09/17 07:37:46;;;;;;;19.17;15.68;;;;;;;21.05;68.01;95429.34;5053796;28;20201;-70
2023/09/17 07:40:13;;;;;;;17.38;14.93;;;;;;;21.11;67.80;95430.50;5053943;28;20200;-69
2023/09/17 07:42:42;;;;;;;19.00;15.05;;;;;;;21.15;67.28;95428.47;5054367;28;20606;-69
2023/09/17 07:45:12;;;;;;;18.50;16.10;;;;;;;21.13;67.58;95428.09;5057136;28;20311;-69
2023/09/17 07:47:41;;;;;;;16.92;14.25;;;;;;;21.15;67.78;95441.69;5058409;28;20240;-70
2023/09/17 07:50:11;;;;;;;17.75;15.57;;;;;;;21.11;67.29;95436.09;5057503;28;20252;-70
2023/09/17 07:52:41;;;;;;;18.92;15.48;;;;;;;21.05;67.30;95431.34;5057493;28;20201;-70
2023/09/17 07:55:10;;;;;;;18.35;14.70;;;;;;;21.07;67.59;95429.72;5057295;28;20632;-69
2023/09/17 07:57:37;;;;;;;19.15;16.52;;;;;;;21.16;67.26;95443.28;5056601;28;20645;-69
2023/09/17 08:00:08;;;;;;;16.80;15.00;;;;;;;21.15;67.36;95439.69;5058283;28;20201;-69
2023/09/17 08:02:36;;;;;;;21.40;17.02;;;;;;;21.13;67.59;95435.69;5058143;28;20189;-70
2023/09/17 08:05:07;;;;;;;20.20;16.67;;;;;;;21.08;67.96;95434.13;5057688;28;20202;-69
2023/09/17 08:07:39;;;;;;;18.20;16.17;;;;;;;21.03;67.89;95430.97;5058163;28;20182;-69
2023/09/17 08:10:10;;;;;;;19.23;16.48;;;;;;;21.04;67.93;95433.34;5057349;28;20205;-70
2023/09/17 08:12:38;;;;;;;19.67;17.38;;;;;;;21.02;68.35;95435.75;5057808;28;20633;-69
2023/09/17 08:15:08;;;;;;;19.30;17.23;;;;;;;21.00;67.95;95434.59;5057991;28;20197;-69
2023/09/17 08:17:36;;;;;;;19.35;16.00;;;;;;;20.96;67.97;95439.44;5057888;28;20214;-69
2023/09/17 08:20:09;;;;;;;20.35;16.23;;;;;;;20.93;68.15;95429.84;5056938;28;20209;-69
2023/09/17 08:22:38;;;;;;;19.88;16.63;;;;;;;20.97;68.22;95436.22;5056787;28;20636;-69
2023/09/17 08:25:08;;;;;;;21.20;17.38;;;;;;;21.00;67.84;95438.19;5057026;28;20218;-69
2023/09/17 08:27:37;;;;;;;19.27;15.88;;;;;;;21.05;68.17;95434.94;5058202;28;20251;-69
2023/09/17 08:30:12;;;;;;;18.88;16.25;;;;;;;21.09;67.82;95440.53;5057716;28;20511;-69
2023/09/17 08:32:40;;;;;;;19.30;16.15;;;;;;;21.18;67.83;95431.66;5056595;28;20232;-70
2023/09/17 08:35:14;;;;;;;17.92;15.88;;;;;;;21.26;67.47;95433.19;5057589;28;20182;-70
2023/09/17 08:37:42;;;;;;;19.63;17.13;;;;;;;21.43;67.75;95417.44;5056686;28;20222;-69
2023/09/17 08:40:10;;;;;;;20.30;16.08;;;;;;;21.46;66.68;95423.03;5056734;28;20221;-69
2023/09/17 08:42:40;;;;;;;20.17;16.23;;;;;;;21.51;66.41;95418.97;5057438;28;20190;-69
2023/09/17 08:45:11;;;;;;;19.45;16.63;;;;;;;21.51;65.96;95418.97;5056745;28;20717;-69
2023/09/17 08:47:39;;;;;;;19.30;16.45;;;;;;;21.49;66.34;95416.56;5056822;28;20617;-69
2023/09/17 08:50:09;;;;;;;20.75;18.45;;;;;;;21.50;66.06;95417.38;5056556;28;20201;-69
2023/09/17 08:52:39;;;;;;;18.88;16.80;;;;;;;21.52;65.74;95418.53;5057103;28;20593;-70
2023/09/17 08:55:09;;;;;;;18.80;16.75;;;;;;;21.47;65.61;95419.00;5057062;28;20265;-69
2023/09/17 08:57:38;;;;;;;20.80;16.83;;;;;;;21.46;66.03;95423.03;5057211;28;20198;-69
2023/09/17 09:00:14;;;;;;;19.17;17.13;;;;;;;21.45;65.86;95412.19;5057130;28;20186;-70
2023/09/17 09:02:44;;;;;;;19.27;16.77;;;;;;;21.49;66.09;95412.97;5057109;28;20196;-68
2023/09/17 09:05:15;;;;;;;19.70;15.65;;;;;;;21.55;65.71;95412.09;5056113;28;20244;-71
2023/09/17 09:07:44;;;;;;;25.58;18.15;;;;;;;21.60;65.64;95402.44;5056948;28;20194;-70
2023/09/17 09:10:13;;;;;;;19.55;16.45;;;;;;;21.66;65.52;95414.00;5055833;28;20190;-69
2023/09/17 09:12:42;;;;;;;22.00;18.42;;;;;;;21.70;65.49;95406.34;5056802;28;20198;-69
2023/09/17 09:15:12;;;;;;;22.65;18.08;;;;;;;21.72;65.27;95410.34;5055760;28;20625;-69
2023/09/17 09:17:40;;;;;;;20.92;18.25;;;;;;;21.69;64.98;95416.78;5056562;28;20287;-69
2023/09/17 09:20:10;;;;;;;20.52;16.63;;;;;;;21.66;65.06;95406.38;5056253;28;20204;-69
2023/09/17 09:22:40;;;;;;;21.05;17.10;;;;;;;21.71;65.07;95407.94;5055852;28;20234;-70
2023/09/17 09:25:10;;;;;;;18.35;16.30;;;;;;;21.72;64.57;95406.72;5056803;28;20190;-69
2023/09/17 09:27:38;;;;;;;20.83;17.70;;;;;;;21.71;64.78;95402.31;5055964;28;20198;-69
2023/09/17 09:30:15;;;;;;;21.20;17.35;;;;;;;21.71;64.52;95400.31;5055783;28;20194;-69
2023/09/17 09:32:43;;;;;;;19.48;16.35;;;;;;;21.72;64.57;95396.31;5056618;28;20497;-70
2023/09/17 09:35:12;;;;;;;20.30;16.85;;;;;;;21.82;64.57;95394.56;5055678;28;20206;-69
2023/09/17 09:37:40;;;;;;;19.85;15.98;;;;;;;21.89;63.98;95394.50;5056111;28;20198;-69
2023/09/17 09:40:11;;;;;;;20.40;17.30;;;;;;;21.92;63.79;95393.66;5055209;28;20209;-69
2023/09/17 09:42:39;;;;;;;19.40;16.17;;;;;;;21.98;63.78;95400.41;5056632;28;20213;-69
2023/09/17 09:45:15;;;;;;;19.77;16.27;;;;;;;22.04;63.43;95400.72;5055174;28;20267;-69
2023/09/17 09:47:47;;;;;;;20.60;17.05;;;;;;;22.11;62.99;95403.47;5055978;28;20620;-69
2023/09/17 09:50:25;;;;;;;19.52;16.08;;;;;;;22.14;63.00;95399.03;5056192;28;20194;-70
2023/09/17 09:52:54;;;;;;;20.17;16.88;;;;;;;22.22;62.42;95406.16;5055366;28;20281;-69
2023/09/17 09:55:27;;;;;;;20.08;15.57;;;;;;;22.25;62.52;95402.53;5056272;28;20220;-69
2023/09/17 09:57:56;;;;;;;18.17;15.85;;;;;;;22.31;62.03;95406.47;5054831;28;20217;-69
2023/09/17 10:00:26;;;;;;;19.00;15.70;;;;;;;22.40;61.80;95405.94;5054801;28;20201;-70
2023/09/17 10:02:56;;;;;;;23.60;16.30;;;;;;;22.44;61.70;95398.25;5055936;28;20277;-69
2023/09/17 10:05:34;;;;;;;19.95;16.88;;;;;;;22.51;61.50;95400.97;5055846;28;20281;-69
2023/09/17 10:08:04;;;;;;;19.35;16.17;;;;;;;22.64;61.22;95395.56;5054344;28;20197;-69
2023/09/17 10:10:32;;;;;;;18.75;16.55;;;;;;;22.79;60.64;95394.16;5055693;28;20196;-69
2023/09/17 10:13:03;;;;;;;21.42;16.23;;;;;;;22.92;60.31;95398.00;5054821;28;20205;-69
2023/09/17 10:15:33;;;;;;;19.42;16.27;;;;;;;23.08;59.50;95388.91;5054811;28;20204;-70
2023/09/17 10:18:01;;;;;;;20.20;16.13;;;;;;;23.04;59.53;95385.34;5055656;28;20229;-70
2023/09/17 10:20:28;;;;;;;21.65;17.58;;;;;;;22.98;59.70;95393.47;5054340;28;20625;-69
2023/09/17 10:22:56;;;;;;;18.50;16.50;;;;;;;22.95;59.62;95391.53;5055777;28;20181;-69
2023/09/17 10:25:24;;;;;;;18.08;16.15;;;;;;;23.02;59.92;95384.97;5054910;28;20209;-69
2023/09/17 10:27:53;;;;;;;20.95;17.60;;;;;;;23.17;59.38;95391.19;5055450;28;20193;-69
2023/09/17 10:30:21;;;;;;;20.65;17.65;;;;;;;23.21;58.78;95391.91;5054692;28;20202;-69
2023/09/17 10:32:51;;;;;;;19.00;16.85;;;;;;;23.17;58.78;95394.78;5055217;28;20259;-69
2023/09/17 10:35:18;;;;;;;19.83;16.92;;;;;;;23.17;59.33;95394.00;5055642;28;20186;-69
2023/09/17 10:37:47;;;;;;;20.20;16.80;;;;;;;23.21;59.51;95389.09;5055336;28;20198;-69
2023/09/17 10:40:15;;;;;;;20.13;17.00;;;;;;;23.25;59.10;95387.81;5055305;28;20197;-70
2023/09/17 10:42:43;;;;;;;18.27;16.27;;;;;;;23.48;58.85;95389.03;5054249;28;20185;-69
2023/09/17 10:45:11;;;;;;;21.27;17.13;;;;;;;23.77;57.95;95381.66;5054933;28;20278;-69
2023/09/17 10:47:40;;;;;;;19.25;16.40;;;;;;;23.91;56.41;95383.44;5054992;28;20186;-69
2023/09/17 10:50:13;;;;;;;19.15;17.10;;;;;;;23.83;56.48;95381.97;5054393;28;20292;-69
2023/09/17 10:52:41;;;;;;;20.95;17.38;;;;;;;23.76;57.24;95377.28;5055043;28;20598;-69
2023/09/17 10:55:11;;;;;;;20.52;17.05;;;;;;;23.70;56.56;95364.13;5055143;28;20216;-69
2023/09/17 10:57:41;;;;;;;19.77;16.98;;;;;;;23.68;56.57;95373.00;5055035;28;20197;-69
2023/09/17 11:00:15;;;;;;;20.42;16.88;;;;;;;23.82;56.24;95369.13;5054488;28;20201;-69
2023/09/17 11:02:47;;;;;;;18.48;16.48;;;;;;;23.89;56.79;95360.50;5055129;28;20186;-69
2023/09/17 11:05:18;;;;;;;20.65;17.63;;;;;;;23.98;57.04;95352.28;5054985;28;20186;-69
2023/09/17 11:07:46;;;;;;;19.75;16.38;;;;;;;24.07;56.06;95353.72;5054203;28;20198;-69
2023/09/17 11:10:15;;;;;;;18.38;16.40;;;;;;;24.08;55.81;95346.88;5055151;28;20236;-69
2023/09/17 11:12:43;;;;;;;19.70;16.70;;;;;;;23.98;55.73;95346.66;5054090;28;20247;-69
2023/09/17 11:15:11;;;;;;;19.55;17.25;;;;;;;23.93;56.01;95340.72;5053881;28;20621;-69
2023/09/17 11:17:40;;;;;;;20.00;17.70;;;;;;;23.94;55.97;95343.13;5055484;28;20206;-69
2023/09/17 11:20:13;;;;;;;20.33;17.33;;;;;;;23.95;55.87;95339.06;5057813;28;20621;-69
2023/09/17 11:22:44;;;;;;;18.98;16.98;;;;;;;24.16;55.68;95342.69;5058900;28;20174;-69
2023/09/17 11:25:12;;;;;;;17.63;15.35;;;;;;;24.39;53.89;95331.31;5058153;28;20268;-69
2023/09/17 11:27:45;;;;;;;21.20;16.17;;;;;;;24.55;54.04;95327.75;5058231;28;20204;-69